No particular awareness of the weather is required.    There are no Weather-warnings


Meteo18 Weather Cam more information Meteo18 Weather Cam


Thunder radar more information blitzortung!


Rain radar more information rain snow radar


Visit our other weather sites:

Template documentation
and downloads

And another site



Weather Underground History page Text

Daily Summary for July 3, 2017 Units:  Metric    English   Both
« Previous Day
Next Day »
Daily Weekly Monthly Yearly Custom
  High: Low: Average:
Temperature: 22.9 °C 14.9 °C 18.3 °C
Dew Point: 16.1 °C 13.3 °C 15.1 °C
Humidity: 97 % 56 % 83 %
Wind Speed: 19.3 km/h 0.0 km/h 4.7 km/h
Wind Gust: 24.1 km/h - -
Wind:- - WSW
Pressure: 1026.6 hPa 1023.6 hPa -
Precipitation: 0.0 mm    
Historical Graphs
 
 
Tabular Data for July 3, 2017
Time Temperature Dew Point Pressure Wind Wind Speed Wind Gust Humidity Rainfall Rate (Hourly)
00:02 16.0 °C 15.4 °C 1026.3 hPa SSW 1.6 km/h 9.7 km/h 96 % 0.0 mm
00:07 16.1 °C 15.5 °C 1026.0 hPa Calm   6.4 km/h 96 % 0.0 mm
00:12 16.0 °C 15.4 °C 1026.0 hPa Calm   6.4 km/h 96 % 0.0 mm
00:17 16.0 °C 15.4 °C 1026.0 hPa Calm   4.8 km/h 96 % 0.0 mm
00:22 15.9 °C 15.3 °C 1026.3 hPa SW 3.2 km/h 4.8 km/h 96 % 0.0 mm
00:27 16.0 °C 15.4 °C 1026.0 hPa SW 3.2 km/h 4.8 km/h 96 % 0.0 mm
00:32 16.1 °C 15.5 °C 1026.0 hPa SSW 3.2 km/h 8.0 km/h 96 % 0.0 mm
00:42 16.1 °C 15.5 °C 1026.0 hPa SW 6.4 km/h 12.9 km/h 96 % 0.0 mm
00:47 16.2 °C 15.6 °C 1026.0 hPa SW 1.6 km/h 12.9 km/h 96 % 0.0 mm
00:52 16.1 °C 15.5 °C 1026.0 hPa SW 3.2 km/h 11.3 km/h 96 % 0.0 mm
00:57 16.2 °C 15.6 °C 1026.0 hPa SW 1.6 km/h 8.0 km/h 96 % 0.0 mm
01:02 16.2 °C 15.6 °C 1026.0 hPa SW 4.8 km/h 8.0 km/h 96 % 0.0 mm
01:07 16.2 °C 15.6 °C 1026.0 hPa Calm   8.0 km/h 96 % 0.0 mm
01:12 16.2 °C 15.6 °C 1026.0 hPa WSW 4.8 km/h 8.0 km/h 96 % 0.0 mm
01:17 16.2 °C 15.6 °C 1026.0 hPa Calm   8.0 km/h 96 % 0.0 mm
01:22 16.2 °C 15.6 °C 1026.0 hPa Calm   8.0 km/h 96 % 0.0 mm
01:32 16.2 °C 15.6 °C 1026.0 hPa Calm   6.4 km/h 96 % 0.0 mm
01:37 16.3 °C 15.7 °C 1026.0 hPa SW 1.6 km/h 6.4 km/h 96 % 0.0 mm
01:42 16.3 °C 15.7 °C 1026.0 hPa SW 6.4 km/h 6.4 km/h 96 % 0.0 mm
01:47 16.3 °C 15.7 °C 1026.0 hPa West 3.2 km/h 12.9 km/h 96 % 0.0 mm
01:52 16.3 °C 15.7 °C 1026.0 hPa West 3.2 km/h 12.9 km/h 96 % 0.0 mm
01:57 16.3 °C 15.5 °C 1026.0 hPa SW 3.2 km/h 12.9 km/h 95 % 0.0 mm
02:02 16.3 °C 15.5 °C 1026.0 hPa SW 3.2 km/h 11.3 km/h 95 % 0.0 mm
02:07 16.3 °C 15.5 °C 1026.0 hPa SW 3.2 km/h 9.7 km/h 95 % 0.0 mm
02:12 16.2 °C 15.4 °C 1026.0 hPa SW 1.6 km/h 9.7 km/h 95 % 0.0 mm
02:17 16.2 °C 15.4 °C 1026.0 hPa SSW 3.2 km/h 9.7 km/h 95 % 0.0 mm
02:22 16.2 °C 15.4 °C 1026.0 hPa SW 3.2 km/h 6.4 km/h 95 % 0.0 mm
02:27 16.2 °C 15.4 °C 1026.0 hPa WSW 6.4 km/h 6.4 km/h 95 % 0.0 mm
02:32 16.2 °C 15.4 °C 1026.0 hPa West 6.4 km/h 9.7 km/h 95 % 0.0 mm
02:37 16.1 °C 15.3 °C 1026.0 hPa WSW 3.2 km/h 9.7 km/h 95 % 0.0 mm
02:42 16.2 °C 15.4 °C 1026.0 hPa West 3.2 km/h 9.7 km/h 95 % 0.0 mm
02:47 16.1 °C 15.3 °C 1026.0 hPa WSW 1.6 km/h 8.0 km/h 95 % 0.0 mm
02:52 16.1 °C 15.3 °C 1026.0 hPa West 8.0 km/h 9.7 km/h 95 % 0.0 mm
02:57 16.1 °C 15.5 °C 1026.0 hPa West 3.2 km/h 9.7 km/h 96 % 0.0 mm
03:02 16.1 °C 15.5 °C 1026.0 hPa SW 1.6 km/h 9.7 km/h 96 % 0.0 mm
03:07 16.1 °C 15.5 °C 1026.0 hPa West 1.6 km/h 8.0 km/h 96 % 0.0 mm
03:12 16.2 °C 15.6 °C 1026.0 hPa Calm   8.0 km/h 96 % 0.0 mm
03:17 16.2 °C 15.6 °C 1026.0 hPa Calm   3.2 km/h 96 % 0.0 mm
03:22 16.2 °C 15.6 °C 1026.0 hPa Calm   3.2 km/h 96 % 0.0 mm
03:27 16.2 °C 15.6 °C 1026.0 hPa Calm   1.6 km/h 96 % 0.0 mm
03:32 16.1 °C 15.5 °C 1026.0 hPa WSW 6.4 km/h 6.4 km/h 96 % 0.0 mm
03:37 16.1 °C 15.5 °C 1026.0 hPa WSW 3.2 km/h 6.4 km/h 96 % 0.0 mm
03:42 16.1 °C 15.5 °C 1026.0 hPa West 4.8 km/h 6.4 km/h 96 % 0.0 mm
03:47 16.1 °C 15.5 °C 1026.0 hPa WSW 1.6 km/h 6.4 km/h 96 % 0.0 mm
03:52 16.1 °C 15.5 °C 1026.0 hPa WSW 3.2 km/h 6.4 km/h 96 % 0.0 mm
03:57 16.0 °C 15.4 °C 1026.0 hPa WSW 4.8 km/h 6.4 km/h 96 % 0.0 mm
04:02 16.0 °C 15.4 °C 1025.6 hPa West 1.6 km/h 6.4 km/h 96 % 0.0 mm
04:07 16.0 °C 15.4 °C 1025.6 hPa WSW 4.8 km/h 6.4 km/h 96 % 0.0 mm
04:12 16.0 °C 15.4 °C 1025.6 hPa WSW 1.6 km/h 6.4 km/h 96 % 0.0 mm
04:17 15.9 °C 15.3 °C 1025.6 hPa WSW 1.6 km/h 6.4 km/h 96 % 0.0 mm
04:22 15.9 °C 15.3 °C 1025.6 hPa Calm   6.4 km/h 96 % 0.0 mm
04:27 15.9 °C 15.3 °C 1025.6 hPa Calm   4.8 km/h 96 % 0.0 mm
04:32 15.9 °C 15.3 °C 1025.6 hPa West 1.6 km/h 3.2 km/h 96 % 0.0 mm
04:37 15.9 °C 15.3 °C 1025.6 hPa West 1.6 km/h 3.2 km/h 96 % 0.0 mm
04:42 15.8 °C 15.2 °C 1025.6 hPa West 1.6 km/h 3.2 km/h 96 % 0.0 mm
04:47 15.8 °C 15.2 °C 1025.6 hPa Calm   4.8 km/h 96 % 0.0 mm
04:52 15.8 °C 15.2 °C 1025.6 hPa Calm   4.8 km/h 96 % 0.0 mm
04:57 15.8 °C 15.2 °C 1025.6 hPa Calm   4.8 km/h 96 % 0.0 mm
05:02 15.8 °C 15.2 °C 1025.6 hPa Calm   4.8 km/h 96 % 0.0 mm
05:07 15.8 °C 15.2 °C 1025.6 hPa Calm     96 % 0.0 mm
05:12 15.9 °C 15.3 °C 1025.6 hPa Calm     96 % 0.0 mm
05:17 15.8 °C 15.2 °C 1025.6 hPa Calm     96 % 0.0 mm
05:22 15.9 °C 15.3 °C 1025.6 hPa Calm     96 % 0.0 mm
05:32 15.9 °C 15.3 °C 1025.6 hPa Calm     96 % 0.0 mm
05:37 15.9 °C 15.3 °C 1025.6 hPa Calm     96 % 0.0 mm
05:42 15.9 °C 15.3 °C 1025.6 hPa Calm     96 % 0.0 mm
05:47 15.9 °C 15.3 °C 1025.6 hPa Calm     96 % 0.0 mm
05:52 15.9 °C 15.3 °C 1025.6 hPa Calm     96 % 0.0 mm
05:57 15.9 °C 15.3 °C 1025.6 hPa Calm     96 % 0.0 mm
06:02 15.9 °C 15.3 °C 1025.6 hPa Calm     96 % 0.0 mm
06:12 16.0 °C 15.4 °C 1025.6 hPa Calm     96 % 0.0 mm
06:17 16.0 °C 15.4 °C 1025.6 hPa Calm     96 % 0.0 mm
06:22 16.0 °C 15.4 °C 1025.6 hPa Calm     96 % 0.0 mm
06:32 16.0 °C 15.4 °C 1025.6 hPa Calm   3.2 km/h 96 % 0.0 mm
06:42 16.0 °C 15.4 °C 1025.6 hPa Calm   3.2 km/h 96 % 0.0 mm
06:52 16.0 °C 15.4 °C 1025.6 hPa Calm     96 % 0.0 mm
07:02 16.1 °C 15.6 °C 1025.6 hPa Calm     97 % 0.0 mm
07:07 16.1 °C 15.6 °C 1025.6 hPa Calm     97 % 0.0 mm
07:12 16.1 °C 15.6 °C 1025.6 hPa Calm     97 % 0.0 mm
07:17 16.1 °C 15.5 °C 1026.0 hPa Calm     96 % 0.0 mm
07:22 16.1 °C 15.6 °C 1026.0 hPa Calm     97 % 0.0 mm
07:32 16.1 °C 15.6 °C 1026.0 hPa SSW 6.4 km/h 6.4 km/h 97 % 0.0 mm
07:37 16.0 °C 15.5 °C 1026.0 hPa SSW 3.2 km/h 8.0 km/h 97 % 0.0 mm
07:42 16.0 °C 15.5 °C 1026.0 hPa SW 4.8 km/h 8.0 km/h 97 % 0.0 mm
07:47 16.0 °C 15.5 °C 1026.0 hPa SSW 4.8 km/h 8.0 km/h 97 % 0.0 mm
07:52 15.9 °C 15.4 °C 1026.0 hPa SSW 3.2 km/h 8.0 km/h 97 % 0.0 mm
08:02 15.9 °C 15.4 °C 1026.0 hPa SW 4.8 km/h 11.3 km/h 97 % 0.0 mm
08:12 15.9 °C 15.4 °C 1026.0 hPa WSW 4.8 km/h 11.3 km/h 97 % 0.0 mm
08:17 15.9 °C 15.4 °C 1026.0 hPa SW 3.2 km/h 9.7 km/h 97 % 0.0 mm
08:22 15.9 °C 15.4 °C 1026.0 hPa West 4.8 km/h 9.7 km/h 97 % 0.0 mm
08:32 16.0 °C 15.5 °C 1026.0 hPa SSW 3.2 km/h 12.9 km/h 97 % 0.0 mm
08:37 16.0 °C 15.5 °C 1026.3 hPa SW 9.7 km/h 12.9 km/h 97 % 0.0 mm
08:42 16.0 °C 15.5 °C 1026.3 hPa WSW 6.4 km/h 9.7 km/h 97 % 0.0 mm
08:47 16.0 °C 15.5 °C 1026.3 hPa SW 6.4 km/h 9.7 km/h 97 % 0.0 mm
08:52 15.9 °C 15.4 °C 1026.3 hPa SW 8.0 km/h 14.5 km/h 97 % 0.0 mm
08:57 15.9 °C 15.4 °C 1026.3 hPa SW 6.4 km/h 14.5 km/h 97 % 0.0 mm
09:02 15.9 °C 15.4 °C 1026.3 hPa SSW 8.0 km/h 14.5 km/h 97 % 0.0 mm
09:12 16.1 °C 15.6 °C 1026.3 hPa SW 6.4 km/h 12.9 km/h 97 % 0.0 mm
09:17 16.1 °C 15.6 °C 1026.3 hPa South 6.4 km/h 12.9 km/h 97 % 0.0 mm
09:22 16.1 °C 15.6 °C 1026.3 hPa SW 6.4 km/h 12.9 km/h 97 % 0.0 mm
09:32 16.1 °C 15.6 °C 1026.3 hPa SW 1.6 km/h 14.5 km/h 97 % 0.0 mm
09:37 16.2 °C 15.7 °C 1026.3 hPa WSW 8.0 km/h 12.9 km/h 97 % 0.0 mm
09:42 16.1 °C 15.6 °C 1026.3 hPa WSW 9.7 km/h 14.5 km/h 97 % 0.0 mm
09:47 16.1 °C 15.6 °C 1026.3 hPa SW 6.4 km/h 17.7 km/h 97 % 0.0 mm
09:52 16.1 °C 15.6 °C 1026.3 hPa SSW 6.4 km/h 17.7 km/h 97 % 0.0 mm
09:57 16.1 °C 15.6 °C 1026.3 hPa WSW 8.0 km/h 17.7 km/h 97 % 0.0 mm
10:02 15.9 °C 15.4 °C 1026.3 hPa West 8.0 km/h 12.9 km/h 97 % 0.0 mm
10:12 16.0 °C 15.5 °C 1026.3 hPa WNW 11.3 km/h 12.9 km/h 97 % 0.0 mm
10:17 16.1 °C 15.6 °C 1026.3 hPa WSW 3.2 km/h 12.9 km/h 97 % 0.0 mm
10:22 16.2 °C 15.7 °C 1026.3 hPa WSW 4.8 km/h 12.9 km/h 97 % 0.0 mm
10:27 16.2 °C 15.6 °C 1026.3 hPa West 11.3 km/h 12.9 km/h 96 % 0.0 mm
10:32 16.2 °C 15.6 °C 1026.6 hPa WNW 9.7 km/h 14.5 km/h 96 % 0.0 mm
10:37 16.2 °C 15.4 °C 1026.6 hPa West 4.8 km/h 16.1 km/h 95 % 0.0 mm
10:42 16.2 °C 15.2 °C 1026.6 hPa West 11.3 km/h 16.1 km/h 94 % 0.0 mm
10:47 16.2 °C 15.2 °C 1026.6 hPa SW 3.2 km/h 17.7 km/h 94 % 0.0 mm
10:52 16.3 °C 15.2 °C 1026.6 hPa WSW 12.9 km/h 17.7 km/h 93 % 0.0 mm
10:57 16.4 °C 15.3 °C 1026.6 hPa West 3.2 km/h 16.1 km/h 93 % 0.0 mm
11:02 16.6 °C 15.3 °C 1026.3 hPa WSW 3.2 km/h 14.5 km/h 92 % 0.0 mm
11:07 16.8 °C 15.3 °C 1026.3 hPa WNW 4.8 km/h 14.5 km/h 91 % 0.0 mm
11:12 16.9 °C 15.2 °C 1026.3 hPa WNW 3.2 km/h 14.5 km/h 90 % 0.0 mm
11:17 16.8 °C 15.0 °C 1026.0 hPa WNW 9.7 km/h 12.9 km/h 89 % 0.0 mm
11:22 17.0 °C 15.3 °C 1026.3 hPa West 11.3 km/h 16.1 km/h 90 % 0.0 mm
11:27 17.1 °C 15.3 °C 1026.3 hPa WSW 6.4 km/h 17.7 km/h 89 % 0.0 mm
11:32 17.3 °C 15.5 °C 1026.3 hPa SW 4.8 km/h 17.7 km/h 89 % 0.0 mm
11:37 17.4 °C 15.4 °C 1026.3 hPa West 8.0 km/h 17.7 km/h 88 % 0.0 mm
11:42 17.6 °C 15.4 °C 1026.3 hPa WSW 8.0 km/h 17.7 km/h 87 % 0.0 mm
11:47 17.7 °C 15.5 °C 1026.3 hPa West 4.8 km/h 17.7 km/h 87 % 0.0 mm
11:52 17.6 °C 15.4 °C 1026.3 hPa West 6.4 km/h 17.7 km/h 87 % 0.0 mm
11:57 17.6 °C 15.4 °C 1026.3 hPa SW 6.4 km/h 14.5 km/h 87 % 0.0 mm
12:02 17.8 °C 15.8 °C 1026.3 hPa West 8.0 km/h 12.9 km/h 88 % 0.0 mm
12:07 17.8 °C 15.6 °C 1026.3 hPa West 4.8 km/h 11.3 km/h 87 % 0.0 mm
12:12 17.8 °C 15.4 °C 1026.0 hPa WSW 8.0 km/h 12.9 km/h 86 % 0.0 mm
12:17 17.9 °C 15.5 °C 1026.0 hPa WNW 8.0 km/h 14.5 km/h 86 % 0.0 mm
12:22 18.2 °C 16.0 °C 1026.0 hPa West 4.8 km/h 14.5 km/h 87 % 0.0 mm
12:27 18.6 °C 16.0 °C 1026.0 hPa SW 4.8 km/h 14.5 km/h 85 % 0.0 mm
12:32 18.7 °C 15.8 °C 1026.0 hPa West 3.2 km/h 14.5 km/h 83 % 0.0 mm
12:42 18.9 °C 15.6 °C 1026.0 hPa West 8.0 km/h 17.7 km/h 81 % 0.0 mm
12:47 19.4 °C 15.7 °C 1026.0 hPa WNW 6.4 km/h 17.7 km/h 79 % 0.0 mm
12:52 19.3 °C 15.6 °C 1026.0 hPa WNW 8.0 km/h 17.7 km/h 79 % 0.0 mm
12:57 19.4 °C 15.9 °C 1026.0 hPa West 12.9 km/h 17.7 km/h 80 % 0.0 mm
13:02 19.6 °C 15.7 °C 1026.0 hPa SW 11.3 km/h 17.7 km/h 78 % 0.0 mm
13:07 19.7 °C 16.0 °C 1026.0 hPa Calm   17.7 km/h 79 % 0.0 mm
13:12 19.8 °C 15.9 °C 1025.6 hPa West 6.4 km/h 16.1 km/h 78 % 0.0 mm
13:17 19.6 °C 15.5 °C 1026.0 hPa West 11.3 km/h 16.1 km/h 77 % 0.0 mm
13:22 19.7 °C 16.0 °C 1026.0 hPa WSW 8.0 km/h 17.7 km/h 79 % 0.0 mm
13:27 19.9 °C 15.7 °C 1026.0 hPa WNW 6.4 km/h 17.7 km/h 77 % 0.0 mm
13:32 20.0 °C 15.8 °C 1025.6 hPa West 9.7 km/h 17.7 km/h 77 % 0.0 mm
13:37 20.2 °C 16.0 °C 1025.6 hPa SW 8.0 km/h 17.7 km/h 77 % 0.0 mm
13:42 20.6 °C 15.8 °C 1025.6 hPa West 6.4 km/h 16.1 km/h 74 % 0.0 mm
13:47 20.4 °C 15.8 °C 1025.6 hPa NW 8.0 km/h 17.7 km/h 75 % 0.0 mm
13:52 20.4 °C 16.0 °C 1025.3 hPa SSE 1.6 km/h 17.7 km/h 76 % 0.0 mm
13:57 20.6 °C 15.8 °C 1025.3 hPa West 11.3 km/h 17.7 km/h 74 % 0.0 mm
14:02 20.8 °C 16.0 °C 1025.3 hPa NW 9.7 km/h 17.7 km/h 74 % 0.0 mm
14:07 21.1 °C 16.1 °C 1025.3 hPa WSW 8.0 km/h 17.7 km/h 73 % 0.0 mm
14:12 20.9 °C 15.9 °C 1025.3 hPa WSW 16.1 km/h 19.3 km/h 73 % 0.0 mm
14:17 20.8 °C 16.0 °C 1025.3 hPa West 12.9 km/h 20.9 km/h 74 % 0.0 mm
14:22 20.9 °C 15.7 °C 1025.3 hPa SW 6.4 km/h 20.9 km/h 72 % 0.0 mm
14:27 21.1 °C 16.1 °C 1025.3 hPa WSW 16.1 km/h 20.9 km/h 73 % 0.0 mm
14:32 20.7 °C 15.7 °C 1025.3 hPa West 16.1 km/h 17.7 km/h 73 % 0.0 mm
14:37 20.5 °C 15.7 °C 1025.3 hPa West 6.4 km/h 17.7 km/h 74 % 0.0 mm
14:42 20.9 °C 16.1 °C 1025.3 hPa WNW 4.8 km/h 19.3 km/h 74 % 0.0 mm
14:47 21.0 °C 15.5 °C 1025.3 hPa SW 9.7 km/h 19.3 km/h 71 % 0.0 mm
14:52 20.8 °C 15.6 °C 1025.3 hPa WSW 6.4 km/h 24.1 km/h 72 % 0.0 mm
14:57 20.8 °C 15.6 °C 1025.3 hPa West 9.7 km/h 24.1 km/h 72 % 0.0 mm
15:02 20.9 °C 15.7 °C 1025.3 hPa WSW 11.3 km/h 22.5 km/h 72 % 0.0 mm
15:07 20.8 °C 16.0 °C 1025.3 hPa WSW 8.0 km/h 22.5 km/h 74 % 0.0 mm
15:12 21.1 °C 15.9 °C 1025.3 hPa West 14.5 km/h 19.3 km/h 72 % 0.0 mm
15:17 20.7 °C 15.3 °C 1025.3 hPa WSW 11.3 km/h 19.3 km/h 71 % 0.0 mm
15:22 20.4 °C 15.6 °C 1025.3 hPa WNW 19.3 km/h 19.3 km/h 74 % 0.0 mm
15:27 20.1 °C 15.5 °C 1025.3 hPa West 16.1 km/h 24.1 km/h 75 % 0.0 mm
15:32 20.2 °C 15.4 °C 1025.3 hPa West 12.9 km/h 24.1 km/h 74 % 0.0 mm
15:37 20.4 °C 15.8 °C 1025.3 hPa SW 9.7 km/h 20.9 km/h 75 % 0.0 mm
15:42 20.3 °C 15.3 °C 1025.3 hPa West 6.4 km/h 20.9 km/h 73 % 0.0 mm
15:47 20.6 °C 15.8 °C 1025.3 hPa West 6.4 km/h 20.9 km/h 74 % 0.0 mm
15:52 20.6 °C 15.6 °C 1024.9 hPa West 11.3 km/h 20.9 km/h 73 % 0.0 mm
15:57 20.6 °C 15.4 °C 1024.9 hPa WNW 4.8 km/h 17.7 km/h 72 % 0.0 mm
16:02 20.7 °C 15.5 °C 1024.9 hPa West 11.3 km/h 17.7 km/h 72 % 0.0 mm
16:07 20.8 °C 15.3 °C 1024.9 hPa WNW 3.2 km/h 20.9 km/h 71 % 0.0 mm
16:12 20.8 °C 15.3 °C 1024.9 hPa WNW 12.9 km/h 20.9 km/h 71 % 0.0 mm
16:17 20.6 °C 15.4 °C 1024.9 hPa WSW 17.7 km/h 22.5 km/h 72 % 0.0 mm
16:22 20.3 °C 15.1 °C 1024.9 hPa WNW 17.7 km/h 22.5 km/h 72 % 0.0 mm
16:27 20.6 °C 15.6 °C 1024.9 hPa West 6.4 km/h 22.5 km/h 73 % 0.0 mm
16:32 20.8 °C 15.3 °C 1024.9 hPa West 4.8 km/h 22.5 km/h 71 % 0.0 mm
16:37 21.2 °C 15.5 °C 1024.9 hPa West 16.1 km/h 20.9 km/h 70 % 0.0 mm
16:42 21.2 °C 15.1 °C 1024.9 hPa West 11.3 km/h 19.3 km/h 68 % 0.0 mm
16:47 21.2 °C 15.1 °C 1024.9 hPa WSW 4.8 km/h 19.3 km/h 68 % 0.0 mm
16:52 21.4 °C 14.8 °C 1024.9 hPa West 14.5 km/h 19.3 km/h 66 % 0.0 mm
16:57 21.2 °C 14.8 °C 1024.9 hPa West 6.4 km/h 22.5 km/h 67 % 0.0 mm
17:02 21.3 °C 15.2 °C 1024.6 hPa WSW 12.9 km/h 22.5 km/h 68 % 0.0 mm
17:12 21.4 °C 14.3 °C 1024.6 hPa WSW 4.8 km/h 22.5 km/h 64 % 0.0 mm
17:17 21.4 °C 14.3 °C 1024.6 hPa Calm   22.5 km/h 64 % 0.0 mm
17:22 21.8 °C 14.4 °C 1024.6 hPa West 6.4 km/h 20.9 km/h 63 % 0.0 mm
17:27 21.6 °C 14.3 °C 1024.3 hPa WNW 11.3 km/h 17.7 km/h 63 % 0.0 mm
17:32 21.8 °C 14.2 °C 1024.3 hPa West 11.3 km/h 17.7 km/h 62 % 0.0 mm
17:37 21.9 °C 14.3 °C 1024.3 hPa SW 3.2 km/h 17.7 km/h 62 % 0.0 mm
17:42 22.2 °C 14.3 °C 1024.3 hPa West 8.0 km/h 17.7 km/h 61 % 0.0 mm
17:47 22.6 °C 14.7 °C 1024.3 hPa SW 11.3 km/h 17.7 km/h 61 % 0.0 mm
17:52 22.5 °C 14.1 °C 1024.3 hPa WSW 9.7 km/h 14.5 km/h 59 % 0.0 mm
17:57 22.3 °C 13.6 °C 1024.3 hPa WSW 8.0 km/h 16.1 km/h 58 % 0.0 mm
18:02 22.3 °C 14.4 °C 1024.3 hPa West 8.0 km/h 17.7 km/h 61 % 0.0 mm
18:07 22.6 °C 14.2 °C 1023.9 hPa West 11.3 km/h 17.7 km/h 59 % 0.0 mm
18:12 22.7 °C 14.5 °C 1023.9 hPa NW 8.0 km/h 17.7 km/h 60 % 0.0 mm
18:17 22.6 °C 13.9 °C 1023.9 hPa West 6.4 km/h 20.9 km/h 58 % 0.0 mm
18:22 22.6 °C 13.9 °C 1023.9 hPa West 9.7 km/h 20.9 km/h 58 % 0.0 mm
18:27 22.4 °C 14.0 °C 1023.9 hPa West 4.8 km/h 20.9 km/h 59 % 0.0 mm
18:32 22.4 °C 14.0 °C 1023.9 hPa Calm   20.9 km/h 59 % 0.0 mm
18:42 22.8 °C 13.8 °C 1023.9 hPa WNW 6.4 km/h 16.1 km/h 57 % 0.0 mm
18:47 22.7 °C 13.7 °C 1023.9 hPa WNW 3.2 km/h 19.3 km/h 57 % 0.0 mm
18:52 22.8 °C 13.6 °C 1023.9 hPa West 6.4 km/h 19.3 km/h 56 % 0.0 mm
18:57 22.8 °C 13.8 °C 1023.9 hPa WNW 8.0 km/h 19.3 km/h 57 % 0.0 mm
19:02 22.7 °C 14.0 °C 1023.9 hPa WNW 9.7 km/h 16.1 km/h 58 % 0.0 mm
19:07 22.6 °C 13.9 °C 1023.9 hPa SW 6.4 km/h 16.1 km/h 58 % 0.0 mm
19:12 22.6 °C 13.9 °C 1023.9 hPa West 4.8 km/h 12.9 km/h 58 % 0.0 mm
19:17 22.6 °C 13.6 °C 1023.9 hPa WSW 4.8 km/h 12.9 km/h 57 % 0.0 mm
19:22 22.5 °C 13.8 °C 1023.9 hPa WSW 3.2 km/h 14.5 km/h 58 % 0.0 mm
19:27 22.6 °C 13.6 °C 1023.9 hPa NW 4.8 km/h 14.5 km/h 57 % 0.0 mm
19:32 22.7 °C 14.0 °C 1023.9 hPa WNW 4.8 km/h 14.5 km/h 58 % 0.0 mm
19:37 22.7 °C 13.7 °C 1023.9 hPa NW 8.0 km/h 14.5 km/h 57 % 0.0 mm
19:42 22.7 °C 14.0 °C 1023.9 hPa WNW 3.2 km/h 14.5 km/h 58 % 0.0 mm
19:47 22.7 °C 14.0 °C 1023.9 hPa Calm   12.9 km/h 58 % 0.0 mm
19:52 22.8 °C 13.8 °C 1023.9 hPa West 3.2 km/h 9.7 km/h 57 % 0.0 mm
19:57 22.7 °C 14.0 °C 1023.9 hPa SSW 4.8 km/h 8.0 km/h 58 % 0.0 mm
20:02 22.7 °C 14.0 °C 1023.9 hPa WNW 4.8 km/h 8.0 km/h 58 % 0.0 mm
20:07 22.7 °C 14.0 °C 1023.9 hPa WSW 6.4 km/h 9.7 km/h 58 % 0.0 mm
20:17 22.7 °C 14.0 °C 1023.9 hPa West 1.6 km/h 14.5 km/h 58 % 0.0 mm
20:22 22.8 °C 13.8 °C 1023.9 hPa WSW 3.2 km/h 12.9 km/h 57 % 0.0 mm
20:32 22.9 °C 14.2 °C 1023.9 hPa Calm   8.0 km/h 58 % 0.0 mm
20:37 22.9 °C 13.9 °C 1023.6 hPa NW 3.2 km/h 6.4 km/h 57 % 0.0 mm
20:42 22.8 °C 14.1 °C 1023.6 hPa WNW 3.2 km/h 6.4 km/h 58 % 0.0 mm
20:47 22.8 °C 14.1 °C 1023.9 hPa Calm   6.4 km/h 58 % 0.0 mm
20:52 22.8 °C 14.4 °C 1023.6 hPa WNW 1.6 km/h 4.8 km/h 59 % 0.0 mm
20:57 22.7 °C 14.3 °C 1023.9 hPa WNW 3.2 km/h 3.2 km/h 59 % 0.0 mm
21:02 22.3 °C 14.2 °C 1023.6 hPa WNW 3.2 km/h 4.8 km/h 60 % 0.0 mm
21:07 22.2 °C 14.3 °C 1023.9 hPa WNW 1.6 km/h 4.8 km/h 61 % 0.0 mm
21:12 21.9 °C 14.0 °C 1023.6 hPa WNW 1.6 km/h 4.8 km/h 61 % 0.0 mm
21:17 21.9 °C 14.3 °C 1023.6 hPa Calm   3.2 km/h 62 % 0.0 mm
21:27 21.9 °C 14.5 °C 1023.6 hPa Calm   3.2 km/h 63 % 0.0 mm
21:32 21.3 °C 14.5 °C 1023.6 hPa Calm   1.6 km/h 65 % 0.0 mm
21:37 20.2 °C 13.9 °C 1023.6 hPa Calm   1.6 km/h 67 % 0.0 mm
21:42 19.5 °C 13.9 °C 1023.6 hPa Calm   1.6 km/h 70 % 0.0 mm
21:47 19.2 °C 13.8 °C 1023.6 hPa Calm   1.6 km/h 71 % 0.0 mm
21:52 18.9 °C 13.7 °C 1023.6 hPa Calm   1.6 km/h 72 % 0.0 mm
21:57 18.4 °C 13.9 °C 1023.6 hPa Calm   1.6 km/h 75 % 0.0 mm
22:02 18.2 °C 14.1 °C 1023.6 hPa Calm     77 % 0.0 mm
22:07 17.9 °C 14.0 °C 1023.6 hPa Calm     78 % 0.0 mm
22:12 17.8 °C 13.9 °C 1023.6 hPa Calm     78 % 0.0 mm
22:17 17.8 °C 14.1 °C 1023.6 hPa Calm     79 % 0.0 mm
22:22 17.7 °C 14.0 °C 1023.6 hPa Calm     79 % 0.0 mm
22:32 16.9 °C 13.8 °C 1023.9 hPa Calm     82 % 0.0 mm
22:37 16.6 °C 13.9 °C 1023.6 hPa Calm     84 % 0.0 mm
22:42 16.3 °C 13.8 °C 1023.6 hPa Calm     85 % 0.0 mm
22:47 16.3 °C 14.0 °C 1023.9 hPa Calm     86 % 0.0 mm
22:52 16.2 °C 13.9 °C 1023.6 hPa Calm     86 % 0.0 mm
22:57 16.2 °C 13.9 °C 1023.9 hPa Calm     86 % 0.0 mm
23:02 16.3 °C 13.6 °C 1023.6 hPa Calm     84 % 0.0 mm
23:12 16.3 °C 13.6 °C 1023.6 hPa Calm     84 % 0.0 mm
23:17 16.2 °C 13.5 °C 1023.9 hPa Calm     84 % 0.0 mm
23:22 16.0 °C 13.5 °C 1023.9 hPa Calm     85 % 0.0 mm
23:27 15.8 °C 13.5 °C 1023.9 hPa Calm     86 % 0.0 mm
23:32 15.6 °C 13.4 °C 1023.9 hPa Calm     87 % 0.0 mm
23:37 15.3 °C 13.3 °C 1023.9 hPa Calm     88 % 0.0 mm
23:42 15.1 °C 13.3 °C 1023.9 hPa Calm     89 % 0.0 mm
23:47 15.0 °C 13.4 °C 1023.9 hPa Calm     90 % 0.0 mm
23:52 15.0 °C 13.4 °C 1023.9 hPa Calm     90 % 0.0 mm
23:57 14.9 °C 13.3 °C 1023.9 hPa Calm     90 % 0.0 mm
Meteo18
Compliments of Weather Underground - 4 mb

Script developed by  Jim McMurry - jmcmurry@mwt.net Adapted for the template by  Wim van der Kuil - Leuven-Template.eu

You find our weather info also at:

European Weather Network

Weather Underground

Equipment we use:

Weather-station
Davis Vue

Weather-program
Meteohub

Weather-server
Raspberry PI 2 B+

Provider
1 and 1

Davis Vue

Meteohub

Raspberry PI 2 B+

1 and 1